Texhoma, Oklahoma
Current Conditions -  °F | °C
As of 8:53 AM on Wednesday 26 Nov 2014 (Local Time) from KGUY Reporting Station
Clear Clear  
Wind Chill: 27°   Ceiling: Unl
Heat Index: 37°   Visibility: 10mi
Dew Point: 28°   Wind: 18mph
Humidity: 70%   Direction: 320°NW
Pressure: 30.23"   Gusts: 26mph
Location:  36.51°N, 101.78°W
Report Text: KGUY 261453Z AUTO 32016G23KT 10SM CLR 03/M02 A3023 RMK AO2 SLP245 T00281022 50018
Loading
Personal Weather Stations






























Interactive Weather Map New forecast layout! Learn more

10-Day Weather Forecast

Advertisements
Track Severe Weather on mobile